createdAt,value
2022-09-15T00:04:23.213Z,4.40
2022-09-15T00:09:24.705Z,3.97
2022-09-15T00:14:26.008Z,6.15
2022-09-15T00:19:30.384Z,4.17
2022-09-15T00:24:31.700Z,4.73
2022-09-15T00:29:33.052Z,5.13
2022-09-15T00:34:34.591Z,7.40
2022-09-15T00:39:36.256Z,3.97
2022-09-15T00:44:46.985Z,4.13
2022-09-15T00:49:50.361Z,3.88
2022-09-15T00:54:54.999Z,4.53
2022-09-15T00:59:57.611Z,5.57
2022-09-15T01:05:00.065Z,4.00
2022-09-15T01:10:04.499Z,4.97
2022-09-15T01:15:06.045Z,5.53
2022-09-15T01:20:13.424Z,6.93
2022-09-15T01:25:27.201Z,5.30
2022-09-15T01:30:30.031Z,6.20
2022-09-15T01:35:37.141Z,6.32
2022-09-15T01:40:54.343Z,5.50
2022-09-15T01:45:56.402Z,5.43
2022-09-15T01:51:01.620Z,4.90
2022-09-15T01:56:05.753Z,5.05
2022-09-15T02:01:33.569Z,5.30
2022-09-15T02:06:39.744Z,7.43
2022-09-15T02:11:47.977Z,7.57
2022-09-15T02:16:52.453Z,5.78
2022-09-15T02:22:14.523Z,5.20
2022-09-15T02:27:17.728Z,5.88
2022-09-15T02:32:23.224Z,5.63
2022-09-15T02:37:25.254Z,4.97
2022-09-15T02:42:27.686Z,6.72
2022-09-15T02:47:29.003Z,6.70
2022-09-15T02:52:30.354Z,4.60
2022-09-15T02:57:31.607Z,6.03
2022-09-15T03:02:34.071Z,4.22
2022-09-15T03:07:36.766Z,4.82
2022-09-15T03:12:39.255Z,4.97
2022-09-15T03:17:43.988Z,4.63
2022-09-15T03:22:47.413Z,6.75
2022-09-15T03:27:49.023Z,5.20
2022-09-15T03:32:50.322Z,6.10
2022-09-15T03:37:51.593Z,4.88
2022-09-15T03:42:52.832Z,7.90
2022-09-15T03:47:54.222Z,6.77
2022-09-15T03:52:58.731Z,5.90
2022-09-15T03:58:00.866Z,5.25
2022-09-15T04:03:02.238Z,5.20
2022-09-15T04:08:03.522Z,7.80
2022-09-15T04:13:04.760Z,4.20
2022-09-15T04:18:06.558Z,8.87
2022-09-15T04:23:07.820Z,6.05
2022-09-15T04:28:09.083Z,9.80
2022-09-15T04:33:10.324Z,13.67
2022-09-15T04:38:11.758Z,4.63
2022-09-15T04:43:13.051Z,5.22
2022-09-15T04:48:14.334Z,5.55
2022-09-15T04:53:15.731Z,6.70
2022-09-15T04:58:17.088Z,6.53
2022-09-15T05:03:18.453Z,4.80
2022-09-15T05:08:19.840Z,6.07
2022-09-15T05:13:21.191Z,5.85
2022-09-15T05:18:24.383Z,4.35
2022-09-15T05:23:26.246Z,5.97
2022-09-15T05:28:27.824Z,6.87
2022-09-15T05:33:29.130Z,6.47
2022-09-15T05:38:31.261Z,6.68
2022-09-15T05:43:34.081Z,5.30
2022-09-15T05:48:38.713Z,7.75
2022-09-15T05:53:40.329Z,4.78
2022-09-15T05:58:43.013Z,5.40
2022-09-15T06:03:44.602Z,4.88
2022-09-15T06:08:50.045Z,5.32
2022-09-15T06:13:54.367Z,5.97
2022-09-15T06:18:55.697Z,6.47
2022-09-15T06:23:58.783Z,4.22
2022-09-15T06:29:01.368Z,4.43
2022-09-15T06:34:03.981Z,7.20
2022-09-15T06:39:05.286Z,5.07
2022-09-15T06:44:06.567Z,6.93
2022-09-15T06:49:07.848Z,5.70
2022-09-15T06:54:09.155Z,8.63
2022-09-15T06:59:15.281Z,5.15
2022-09-15T07:04:16.711Z,7.77
2022-09-15T07:09:19.104Z,6.33
2022-09-15T07:14:20.402Z,6.60
2022-09-15T07:19:21.739Z,5.70
2022-09-15T07:24:23.066Z,6.07
2022-09-15T07:29:24.518Z,6.55
2022-09-15T07:34:25.821Z,4.10
2022-09-15T07:39:27.095Z,5.07
2022-09-15T07:44:28.521Z,7.93
2022-09-15T07:49:29.781Z,7.28
2022-09-15T07:54:31.234Z,14.40
2022-09-15T07:59:32.848Z,6.43
2022-09-15T08:04:34.099Z,6.13
2022-09-15T08:09:36.859Z,6.78
2022-09-15T08:14:38.221Z,7.73
2022-09-15T08:19:39.522Z,6.35
2022-09-15T08:24:40.809Z,6.65
2022-09-15T08:29:42.597Z,7.77
2022-09-15T08:34:46.054Z,8.00
2022-09-15T08:39:47.551Z,6.85
2022-09-15T08:44:55.677Z,7.07
2022-09-15T08:50:16.608Z,8.30
2022-09-15T08:55:21.183Z,11.15
2022-09-15T09:00:22.511Z,6.53
2022-09-15T09:05:29.801Z,7.47
2022-09-15T09:10:37.774Z,9.85
2022-09-15T09:15:50.441Z,10.38
2022-09-15T09:20:58.074Z,7.83
2022-09-15T09:26:01.893Z,8.57
2022-09-15T09:31:07.082Z,7.43
2022-09-15T09:36:08.707Z,7.43
2022-09-15T09:41:13.390Z,8.10
2022-09-15T09:46:16.207Z,9.98
2022-09-15T09:51:33.157Z,7.20
2022-09-15T09:56:34.483Z,6.70
2022-09-15T10:01:35.857Z,6.53
2022-09-15T10:06:37.194Z,7.72
2022-09-15T10:11:49.420Z,6.43
2022-09-15T10:16:56.463Z,9.03
2022-09-15T10:21:58.117Z,6.43
2022-09-15T10:27:06.000Z,6.63
2022-09-15T10:32:19.004Z,7.90
2022-09-15T10:37:35.975Z,7.30
2022-09-15T10:42:47.307Z,6.82
2022-09-15T10:48:07.213Z,8.23
2022-09-15T10:53:14.701Z,8.37
2022-09-15T10:58:16.119Z,8.60
2022-09-15T11:03:41.043Z,8.52
2022-09-15T11:09:01.133Z,7.33
2022-09-15T11:14:08.495Z,7.70
2022-09-15T11:19:09.939Z,7.20
2022-09-15T11:24:29.993Z,6.65
2022-09-15T11:29:36.676Z,6.73
2022-09-15T11:34:51.563Z,7.07
2022-09-15T11:39:56.496Z,7.00
2022-09-15T11:44:58.308Z,6.70
2022-09-15T11:49:59.562Z,8.63
2022-09-15T11:55:04.863Z,9.25
2022-09-15T12:00:12.194Z,9.93
2022-09-15T12:05:16.277Z,9.40
2022-09-15T12:10:19.952Z,7.50
2022-09-15T12:15:27.535Z,8.48
2022-09-15T12:20:41.794Z,8.33
2022-09-15T12:25:50.195Z,10.70
2022-09-15T12:31:10.741Z,10.85
2022-09-15T12:36:30.485Z,13.23
2022-09-15T12:41:32.868Z,12.70
2022-09-15T12:46:34.264Z,12.27
2022-09-15T12:51:35.636Z,14.57
2022-09-15T12:56:37.649Z,10.77
2022-09-15T13:01:39.685Z,13.15
2022-09-15T13:07:00.987Z,16.27
2022-09-15T13:12:13.266Z,17.07
2022-09-15T13:17:18.214Z,15.98
2022-09-15T13:22:30.097Z,17.25
2022-09-15T13:27:36.551Z,15.23
2022-09-15T13:32:49.438Z,13.48
2022-09-15T13:38:16.950Z,17.40
2022-09-15T13:43:37.353Z,28.60
2022-09-15T13:48:41.381Z,19.47
2022-09-15T13:53:51.984Z,15.90
2022-09-15T13:59:00.072Z,19.63
2022-09-15T14:04:27.243Z,26.00
2022-09-15T14:09:34.634Z,28.10
2022-09-15T14:14:40.856Z,16.25
2022-09-15T14:19:42.148Z,23.83
2022-09-15T14:24:43.744Z,22.20
2022-09-15T14:29:45.104Z,21.38
2022-09-15T14:39:50.342Z,11.37
2022-09-15T14:50:17.662Z,10.40
2022-09-15T14:55:28.154Z,7.50
2022-09-15T15:00:32.425Z,19.52
2022-09-15T15:05:36.005Z,9.73
2022-09-15T15:10:37.753Z,11.27
2022-09-15T15:15:39.369Z,10.27
2022-09-15T15:20:48.315Z,11.80
2022-09-15T15:25:50.007Z,7.77
2022-09-15T15:30:51.257Z,15.53
2022-09-15T15:36:08.891Z,25.02
2022-09-15T15:41:18.040Z,13.68
2022-09-15T15:46:39.290Z,12.50
2022-09-15T15:51:41.128Z,33.35
2022-09-15T15:56:42.740Z,25.45
2022-09-15T16:01:44.121Z,22.27
2022-09-15T16:06:45.982Z,11.85
2022-09-15T16:11:47.797Z,13.65
2022-09-15T16:16:49.214Z,7.03
2022-09-15T16:21:50.644Z,23.00
2022-09-15T16:26:53.873Z,7.38
2022-09-15T16:31:58.800Z,16.20
2022-09-15T16:37:00.147Z,9.97
2022-09-15T16:42:01.695Z,11.57
2022-09-15T16:47:05.515Z,14.93
2022-09-15T16:52:09.101Z,23.43
2022-09-15T16:57:10.402Z,16.08
2022-09-15T17:02:13.498Z,12.10
2022-09-15T17:07:14.951Z,11.27
2022-09-15T17:12:18.034Z,20.80
2022-09-15T17:17:23.347Z,6.13
2022-09-15T17:22:24.712Z,16.90
2022-09-15T17:27:25.969Z,7.03
2022-09-15T17:32:30.609Z,11.07
2022-09-15T17:37:34.129Z,7.32
2022-09-15T17:42:35.411Z,10.67
2022-09-15T17:47:37.092Z,7.07
2022-09-15T17:52:38.565Z,10.57
2022-09-15T17:57:39.914Z,14.23
2022-09-15T18:02:42.867Z,8.73
2022-09-15T18:07:44.207Z,6.65
2022-09-15T18:12:48.376Z,8.35
2022-09-15T18:17:52.343Z,24.73
2022-09-15T18:22:54.326Z,13.45
2022-09-15T18:27:55.874Z,10.50
2022-09-15T18:33:00.008Z,7.03
2022-09-15T18:38:01.534Z,14.38
2022-09-15T18:43:02.968Z,12.63
2022-09-15T18:48:07.026Z,9.23
2022-09-15T18:53:10.426Z,9.33
2022-09-15T18:58:12.564Z,6.07
2022-09-15T19:03:14.417Z,6.33
2022-09-15T19:08:16.019Z,6.77
2022-09-15T19:13:17.277Z,8.35
2022-09-15T19:18:18.875Z,7.95
2022-09-15T19:23:20.334Z,13.87
2022-09-15T19:28:21.616Z,9.60
2022-09-15T19:33:22.930Z,10.43
2022-09-15T19:38:24.483Z,9.07
2022-09-15T19:43:25.911Z,8.60
2022-09-15T19:48:27.784Z,10.23
2022-09-15T19:53:29.193Z,7.60
2022-09-15T19:58:30.750Z,9.80
2022-09-15T20:03:32.048Z,9.27
2022-09-15T20:08:33.397Z,9.82
2022-09-15T20:13:39.255Z,8.83
2022-09-15T20:18:42.836Z,8.23
2022-09-15T20:23:45.447Z,7.97
2022-09-15T20:28:47.536Z,9.63
2022-09-15T20:33:51.358Z,10.55
2022-09-15T20:38:53.540Z,8.10
2022-09-15T20:43:55.143Z,11.07
2022-09-15T20:48:56.435Z,12.75
2022-09-15T20:53:59.322Z,9.67
2022-09-15T20:59:00.823Z,8.60
2022-09-15T21:04:02.598Z,9.18
2022-09-15T21:09:04.500Z,10.47
2022-09-15T21:14:05.781Z,11.17
2022-09-15T21:19:12.200Z,12.57
2022-09-15T21:24:13.980Z,10.13
2022-09-15T21:29:15.271Z,19.07
2022-09-15T21:34:16.987Z,13.23
2022-09-15T21:39:18.262Z,8.67
2022-09-15T21:44:19.517Z,8.27
2022-09-15T21:49:20.763Z,10.10
2022-09-15T21:54:22.091Z,9.73
2022-09-15T21:59:23.343Z,11.70
2022-09-15T22:04:24.642Z,9.80
2022-09-15T22:09:26.246Z,8.27
2022-09-15T22:14:27.585Z,8.07
2022-09-15T22:19:29.338Z,8.85
2022-09-15T22:24:30.628Z,9.82
2022-09-15T22:29:32.079Z,11.13
2022-09-15T22:34:33.383Z,11.50
2022-09-15T22:39:57.507Z,10.77
2022-09-15T22:44:55.918Z,9.30
2022-09-15T22:49:57.186Z,8.60
2022-09-15T22:55:01.833Z,7.10
2022-09-15T23:00:03.268Z,7.20
2022-09-15T23:05:05.102Z,7.63
2022-09-15T23:10:06.463Z,7.88
2022-09-15T23:15:08.098Z,8.47
2022-09-15T23:20:09.564Z,10.07
2022-09-15T23:25:10.922Z,8.05
2022-09-15T23:30:12.524Z,12.60
2022-09-15T23:35:13.835Z,9.98
2022-09-15T23:40:15.152Z,8.00
2022-09-15T23:45:16.495Z,7.77
2022-09-15T23:50:17.782Z,7.55
2022-09-15T23:55:19.070Z,8.68
